createdAt,value
2018-05-25T00:00:30.686Z,20.56
2018-05-25T00:02:58.117Z,20.52
2018-05-25T00:05:25.513Z,20.46
2018-05-25T00:07:52.940Z,20.39
2018-05-25T00:10:20.337Z,20.37
2018-05-25T00:12:47.757Z,20.36
2018-05-25T00:15:15.197Z,20.31
2018-05-25T00:17:42.589Z,20.29
2018-05-25T00:20:09.988Z,20.25
2018-05-25T00:22:37.461Z,20.22
2018-05-25T00:25:04.865Z,20.24
2018-05-25T00:27:32.258Z,20.26
2018-05-25T00:29:59.665Z,20.27
2018-05-25T00:32:27.066Z,20.28
2018-05-25T00:34:54.472Z,20.28
2018-05-25T00:37:21.872Z,20.29
2018-05-25T00:39:49.345Z,20.31
2018-05-25T00:42:16.745Z,20.33
2018-05-25T00:44:44.164Z,20.31
2018-05-25T00:47:11.629Z,20.25
2018-05-25T00:49:39.104Z,20.25
2018-05-25T00:52:06.565Z,20.27
2018-05-25T00:54:34.057Z,20.29
2018-05-25T00:57:01.509Z,20.31
2018-05-25T00:59:29.004Z,20.32
2018-05-25T01:01:56.392Z,20.34
2018-05-25T01:04:23.796Z,20.35
2018-05-25T01:06:51.193Z,20.35
2018-05-25T01:09:18.604Z,20.37
2018-05-25T01:11:46.001Z,20.40
2018-05-25T01:14:13.492Z,20.42
2018-05-25T01:16:40.909Z,20.42
2018-05-25T01:19:08.341Z,20.44
2018-05-25T01:21:35.792Z,20.45
2018-05-25T01:24:03.197Z,20.46
2018-05-25T01:26:30.601Z,20.45
2018-05-25T01:28:58.109Z,20.44
2018-05-25T01:31:25.573Z,20.43
2018-05-25T01:33:52.976Z,20.41
2018-05-25T01:36:20.371Z,20.40
2018-05-25T01:38:47.837Z,20.34
2018-05-25T01:41:15.245Z,20.31
2018-05-25T01:43:42.716Z,20.28
2018-05-25T01:46:10.197Z,20.26
2018-05-25T01:48:37.625Z,20.24
2018-05-25T01:51:05.021Z,20.22
2018-05-25T01:53:32.425Z,20.20
2018-05-25T01:55:59.852Z,20.18
2018-05-25T01:58:27.332Z,20.15
2018-05-25T02:00:54.806Z,20.12
2018-05-25T02:03:22.224Z,20.12
2018-05-25T02:05:49.728Z,20.10
2018-05-25T02:08:17.201Z,20.09
2018-05-25T02:10:44.684Z,20.07
2018-05-25T02:13:12.245Z,20.06
2018-05-25T02:15:39.647Z,20.02
2018-05-25T02:18:07.061Z,20.00
2018-05-25T02:20:34.461Z,19.99
2018-05-25T02:23:01.914Z,19.93
2018-05-25T02:25:29.387Z,19.87
2018-05-25T02:27:56.853Z,19.84
2018-05-25T02:30:24.326Z,19.84
2018-05-25T02:32:51.729Z,19.83
2018-05-25T02:35:19.164Z,19.82
2018-05-25T02:37:46.559Z,19.81
2018-05-25T02:40:13.969Z,19.78
2018-05-25T02:42:41.365Z,19.79
2018-05-25T02:45:08.765Z,19.77
2018-05-25T02:47:36.193Z,19.73
2018-05-25T02:50:03.665Z,19.74
2018-05-25T02:52:31.157Z,19.76
2018-05-25T02:54:58.548Z,19.78
2018-05-25T02:57:25.981Z,19.77
2018-05-25T02:59:53.379Z,19.75
2018-05-25T03:02:20.781Z,19.74
2018-05-25T03:04:48.277Z,19.73
2018-05-25T03:07:15.752Z,19.72
2018-05-25T03:09:43.221Z,19.73
2018-05-25T03:12:10.813Z,19.73
2018-05-25T03:14:38.221Z,19.70
2018-05-25T03:17:05.689Z,19.62
2018-05-25T03:19:33.113Z,19.58
2018-05-25T03:22:00.560Z,19.58
2018-05-25T03:24:27.965Z,19.59
2018-05-25T03:26:55.372Z,19.60
2018-05-25T03:29:22.877Z,19.59
2018-05-25T03:31:50.287Z,19.56
2018-05-25T03:34:17.709Z,19.55
2018-05-25T03:36:45.105Z,19.56
2018-05-25T03:39:12.509Z,19.57
2018-05-25T03:41:40.018Z,19.54
2018-05-25T03:44:07.429Z,19.50
2018-05-25T03:46:34.831Z,19.50
2018-05-25T03:49:02.254Z,19.53
2018-05-25T03:51:29.684Z,19.56
2018-05-25T03:53:57.152Z,19.60
2018-05-25T03:56:24.560Z,19.63
2018-05-25T03:59:03.968Z,19.63
2018-05-25T04:01:43.341Z,19.63
2018-05-25T04:04:10.801Z,19.63
2018-05-25T04:06:38.221Z,19.61
2018-05-25T04:09:05.617Z,19.59
2018-05-25T04:11:33.025Z,19.55
2018-05-25T04:14:00.419Z,19.55
2018-05-25T04:16:27.839Z,19.58
2018-05-25T04:18:55.339Z,19.60
2018-05-25T04:21:22.733Z,19.62
2018-05-25T04:23:50.136Z,19.63
2018-05-25T04:26:17.578Z,19.63
2018-05-25T04:28:44.936Z,19.62
2018-05-25T04:31:12.341Z,19.63
2018-05-25T04:33:39.813Z,19.63
2018-05-25T04:36:07.281Z,19.68
2018-05-25T04:38:34.744Z,19.71
2018-05-25T04:41:02.226Z,19.75
2018-05-25T04:43:29.621Z,19.77
2018-05-25T04:45:57.025Z,19.80
2018-05-25T04:48:24.481Z,19.82
2018-05-25T04:50:51.845Z,19.82
2018-05-25T04:53:19.353Z,19.82
2018-05-25T04:55:46.777Z,19.82
2018-05-25T04:58:14.169Z,19.83
2018-05-25T05:00:41.585Z,19.83
2018-05-25T05:03:08.988Z,19.83
2018-05-25T05:05:36.518Z,19.86
2018-05-25T05:08:03.969Z,19.85
2018-05-25T05:10:31.385Z,19.86
2018-05-25T05:12:58.806Z,19.86
2018-05-25T05:15:26.211Z,19.88
2018-05-25T05:17:53.613Z,19.90
2018-05-25T05:20:21.157Z,19.93
2018-05-25T05:22:48.565Z,19.97
2018-05-25T05:25:15.968Z,19.99
2018-05-25T05:27:43.362Z,19.99
2018-05-25T05:30:10.805Z,20.00
2018-05-25T05:32:38.259Z,20.02
2018-05-25T05:35:05.713Z,20.04
2018-05-25T05:37:33.198Z,20.07
2018-05-25T05:40:00.627Z,20.09
2018-05-25T05:42:28.032Z,20.11
2018-05-25T05:44:55.512Z,20.12
2018-05-25T05:47:22.917Z,20.14
2018-05-25T05:49:50.334Z,20.16
2018-05-25T05:52:17.805Z,20.16
2018-05-25T05:54:45.220Z,20.15
2018-05-25T05:57:12.617Z,20.17
2018-05-25T05:59:40.022Z,20.19
2018-05-25T06:02:07.413Z,20.22
2018-05-25T06:04:34.923Z,20.22
2018-05-25T06:07:02.318Z,20.23
2018-05-25T06:09:29.789Z,20.23
2018-05-25T06:11:57.189Z,20.25
2018-05-25T06:14:24.845Z,20.27
2018-05-25T06:16:52.310Z,20.28
2018-05-25T06:19:19.828Z,20.28
2018-05-25T06:21:47.265Z,20.28
2018-05-25T06:24:14.673Z,20.29
2018-05-25T06:26:42.172Z,20.28
2018-05-25T06:29:09.649Z,20.29
2018-05-25T06:31:37.416Z,20.28
2018-05-25T06:34:04.818Z,20.29
2018-05-25T06:36:32.204Z,20.31
2018-05-25T06:38:59.610Z,20.33
2018-05-25T06:41:27.103Z,20.34
2018-05-25T06:43:54.568Z,20.38
2018-05-25T06:46:22.029Z,20.40
2018-05-25T06:48:49.433Z,20.43
2018-05-25T06:51:16.836Z,20.48
2018-05-25T06:53:44.229Z,20.49
2018-05-25T06:56:11.628Z,20.50
2018-05-25T06:58:39.053Z,20.54
2018-05-25T07:01:06.541Z,20.56
2018-05-25T07:03:34.109Z,20.56
2018-05-25T07:06:01.574Z,20.52
2018-05-25T07:08:29.062Z,20.53
2018-05-25T07:10:56.528Z,20.53
2018-05-25T07:13:23.997Z,20.53
2018-05-25T07:15:51.417Z,20.53
2018-05-25T07:18:18.813Z,20.54
2018-05-25T07:20:46.561Z,20.54
2018-05-25T07:23:14.069Z,20.54
2018-05-25T07:25:41.547Z,20.56
2018-05-25T07:28:09.013Z,20.56
2018-05-25T07:30:36.505Z,20.55
2018-05-25T07:33:03.981Z,20.54
2018-05-25T07:35:31.377Z,20.53
2018-05-25T07:37:58.777Z,20.54
2018-05-25T07:40:26.253Z,20.56
2018-05-25T07:42:53.644Z,20.56
2018-05-25T07:45:21.069Z,20.56
2018-05-25T07:47:48.465Z,20.58
2018-05-25T07:50:16.185Z,20.58
2018-05-25T07:52:43.757Z,20.61
2018-05-25T07:55:11.201Z,20.62
2018-05-25T07:57:38.646Z,20.66
2018-05-25T08:00:06.114Z,20.73
2018-05-25T08:02:33.640Z,20.82
2018-05-25T08:05:01.039Z,20.92
2018-05-25T08:07:28.456Z,21.00
2018-05-25T08:09:55.857Z,21.08
2018-05-25T08:12:33.190Z,21.12
2018-05-25T08:15:00.649Z,21.17
2018-05-25T08:17:28.057Z,21.21
2018-05-25T08:19:55.489Z,21.23
2018-05-25T08:22:22.890Z,21.24
2018-05-25T08:24:50.314Z,21.26
2018-05-25T08:27:17.793Z,21.29
2018-05-25T08:29:45.268Z,21.29
2018-05-25T08:32:12.665Z,21.29
2018-05-25T08:34:40.108Z,21.28
2018-05-25T08:37:07.521Z,21.31
2018-05-25T08:39:34.952Z,21.36
2018-05-25T08:42:02.349Z,21.43
2018-05-25T08:44:29.776Z,21.48
2018-05-25T08:46:57.240Z,21.51
2018-05-25T08:49:24.796Z,21.53
2018-05-25T08:51:52.214Z,21.56
2018-05-25T08:54:19.697Z,21.60
2018-05-25T08:56:47.105Z,21.65
2018-05-25T08:59:14.509Z,21.69
2018-05-25T09:01:41.966Z,21.75
2018-05-25T09:04:09.445Z,21.80
2018-05-25T09:06:36.877Z,21.86
2018-05-25T09:09:04.384Z,21.91
2018-05-25T09:11:31.804Z,21.96
2018-05-25T09:13:59.209Z,22.01
2018-05-25T09:16:26.610Z,22.07
2018-05-25T09:18:54.009Z,22.12
2018-05-25T09:21:21.400Z,22.17
2018-05-25T09:23:48.808Z,22.21
2018-05-25T09:26:16.210Z,22.26
2018-05-25T09:28:43.604Z,22.30
2018-05-25T09:31:11.092Z,22.39
2018-05-25T09:33:38.493Z,22.48
2018-05-25T09:36:05.929Z,22.54
2018-05-25T09:38:33.352Z,22.60
2018-05-25T09:41:00.870Z,22.63
2018-05-25T09:43:28.303Z,22.66
2018-05-25T09:45:55.698Z,22.67
2018-05-25T09:48:23.112Z,22.72
2018-05-25T09:50:50.517Z,22.77
2018-05-25T09:53:17.999Z,22.84
2018-05-25T09:55:45.400Z,22.93
2018-05-25T09:58:12.821Z,23.04
2018-05-25T10:00:40.237Z,23.13
2018-05-25T10:03:07.671Z,23.21
2018-05-25T10:05:35.141Z,23.28
2018-05-25T10:08:02.644Z,23.33
2018-05-25T10:10:30.045Z,23.45
2018-05-25T10:12:57.456Z,23.55
2018-05-25T10:15:24.855Z,23.58
2018-05-25T10:17:52.301Z,23.64
2018-05-25T10:20:19.746Z,23.75
2018-05-25T10:22:47.226Z,23.84
2018-05-25T10:25:14.688Z,23.96
2018-05-25T10:27:42.093Z,24.05
2018-05-25T10:30:09.521Z,24.15
2018-05-25T10:32:37.008Z,24.28
2018-05-25T10:35:04.482Z,24.37
2018-05-25T10:37:31.841Z,24.43
2018-05-25T10:39:59.264Z,24.49
2018-05-25T10:42:26.657Z,24.64
2018-05-25T10:44:54.133Z,24.92
2018-05-25T10:47:21.564Z,25.23
2018-05-25T10:49:48.957Z,25.52
2018-05-25T10:52:16.449Z,25.69
2018-05-25T10:54:43.916Z,25.67
2018-05-25T10:57:11.364Z,25.57
2018-05-25T10:59:38.773Z,25.61
2018-05-25T11:02:06.222Z,25.59
2018-05-25T11:04:33.616Z,25.64
2018-05-25T11:07:01.044Z,25.58
2018-05-25T11:09:28.460Z,25.44
2018-05-25T11:11:55.878Z,25.52
2018-05-25T11:14:23.356Z,25.81
2018-05-25T11:16:50.809Z,26.13
2018-05-25T11:19:18.293Z,26.44
2018-05-25T11:21:45.775Z,26.67
2018-05-25T11:24:13.164Z,26.85
2018-05-25T11:26:40.565Z,27.05
2018-05-25T11:29:08.073Z,27.28
2018-05-25T11:31:35.548Z,27.41
2018-05-25T11:34:02.957Z,27.61
2018-05-25T11:36:30.375Z,27.78
2018-05-25T11:38:57.781Z,27.99
2018-05-25T11:41:25.181Z,28.19
2018-05-25T11:43:53.521Z,28.29
2018-05-25T11:46:20.973Z,28.06
2018-05-25T11:48:48.449Z,27.63
2018-05-25T11:51:15.861Z,27.33
2018-05-25T11:53:43.293Z,27.36
2018-05-25T11:56:10.713Z,27.56
2018-05-25T11:58:38.112Z,27.76
2018-05-25T12:01:05.509Z,27.85
2018-05-25T12:03:32.917Z,27.74
2018-05-25T12:06:00.520Z,27.75
2018-05-25T12:08:27.993Z,27.87
2018-05-25T12:10:55.459Z,27.99
2018-05-25T12:13:22.943Z,28.09
2018-05-25T12:15:50.633Z,27.97
2018-05-25T12:18:18.037Z,27.78
2018-05-25T12:20:45.903Z,27.79
2018-05-25T12:23:13.321Z,27.97
2018-05-25T12:25:40.801Z,28.13
2018-05-25T12:28:08.226Z,28.26
2018-05-25T12:30:35.605Z,28.35
2018-05-25T12:33:03.009Z,28.39
2018-05-25T12:35:30.423Z,28.27
2018-05-25T12:37:57.815Z,28.18
2018-05-25T12:40:25.295Z,28.28
2018-05-25T12:42:52.769Z,28.45
2018-05-25T12:45:20.175Z,28.63
2018-05-25T12:47:47.602Z,28.73
2018-05-25T12:50:15.069Z,28.81
2018-05-25T12:52:42.555Z,28.76
2018-05-25T12:55:09.941Z,28.68
2018-05-25T12:57:37.337Z,28.79
2018-05-25T13:00:04.758Z,28.86
2018-05-25T13:02:32.221Z,28.68
2018-05-25T13:04:59.680Z,28.50
2018-05-25T13:07:27.089Z,28.34
2018-05-25T13:09:54.468Z,28.21
2018-05-25T13:12:21.896Z,28.09
2018-05-25T13:14:49.345Z,27.98
2018-05-25T13:17:16.740Z,27.87
2018-05-25T13:19:44.125Z,27.82
2018-05-25T13:22:11.532Z,27.96
2018-05-25T13:24:38.941Z,28.02
2018-05-25T13:27:06.373Z,28.02
2018-05-25T13:29:33.806Z,28.05
2018-05-25T13:32:01.194Z,28.17
2018-05-25T13:34:28.603Z,28.29
2018-05-25T13:36:55.988Z,28.39
2018-05-25T13:39:23.435Z,28.41
2018-05-25T13:41:50.817Z,28.51
2018-05-25T13:44:18.285Z,28.68
2018-05-25T13:46:45.705Z,28.78
2018-05-25T13:49:13.102Z,28.92
2018-05-25T13:51:40.504Z,29.04
2018-05-25T13:54:07.945Z,29.24
2018-05-25T13:56:35.421Z,29.44
2018-05-25T13:59:02.805Z,29.66
2018-05-25T14:01:30.257Z,29.86
2018-05-25T14:03:57.643Z,29.86
2018-05-25T14:06:25.049Z,29.77
2018-05-25T14:08:52.462Z,29.69
2018-05-25T14:11:19.926Z,29.83
2018-05-25T14:13:47.261Z,29.86
2018-05-25T14:16:14.645Z,29.87
2018-05-25T14:18:42.120Z,29.82
2018-05-25T14:21:09.501Z,29.82
2018-05-25T14:23:36.973Z,29.62
2018-05-25T14:26:04.377Z,29.29
2018-05-25T14:28:31.781Z,28.93
2018-05-25T14:30:59.185Z,28.76
2018-05-25T14:33:26.642Z,28.77
2018-05-25T14:35:54.033Z,28.88
2018-05-25T14:38:21.509Z,28.95
2018-05-25T14:40:48.908Z,28.94
2018-05-25T14:43:16.293Z,28.96
2018-05-25T14:45:43.781Z,28.97
2018-05-25T14:48:11.165Z,28.98
2018-05-25T14:50:38.577Z,28.99
2018-05-25T14:53:05.973Z,28.98
2018-05-25T14:55:33.450Z,29.01
2018-05-25T14:58:00.921Z,29.08
2018-05-25T15:00:28.458Z,29.15
2018-05-25T15:02:55.861Z,29.31
2018-05-25T15:05:23.338Z,29.39
2018-05-25T15:07:50.797Z,29.41
2018-05-25T15:10:18.201Z,29.50
2018-05-25T15:12:45.629Z,29.45
2018-05-25T15:15:13.016Z,29.29
2018-05-25T15:17:40.413Z,29.20
2018-05-25T15:20:07.821Z,29.23
2018-05-25T15:22:35.309Z,29.50
2018-05-25T15:25:02.800Z,29.65
2018-05-25T15:27:30.206Z,29.72
2018-05-25T15:29:57.589Z,29.83
2018-05-25T15:32:24.999Z,29.78
2018-05-25T15:34:52.384Z,29.74
2018-05-25T15:37:19.784Z,29.80
2018-05-25T15:39:47.225Z,29.81
2018-05-25T15:42:14.624Z,29.73
2018-05-25T15:44:42.014Z,29.66
2018-05-25T15:47:09.433Z,29.78
2018-05-25T15:49:36.837Z,30.12
2018-05-25T15:52:04.224Z,30.42
2018-05-25T15:54:32.502Z,30.65
2018-05-25T15:56:59.900Z,31.18
2018-05-25T15:59:27.344Z,32.14
2018-05-25T16:01:54.756Z,32.71
2018-05-25T16:04:22.180Z,32.04
2018-05-25T16:06:49.580Z,31.06
2018-05-25T16:09:17.029Z,30.29
2018-05-25T16:11:44.523Z,29.65
2018-05-25T16:14:11.620Z,29.15
2018-05-25T16:16:38.712Z,28.79
2018-05-25T16:19:05.685Z,29.66
2018-05-25T16:21:32.638Z,31.53
2018-05-25T16:23:59.600Z,33.13
2018-05-25T16:26:26.552Z,34.19
2018-05-25T16:28:53.541Z,34.85
2018-05-25T16:31:20.428Z,34.18
2018-05-25T16:33:47.432Z,32.81
2018-05-25T16:36:14.373Z,31.54
2018-05-25T16:38:41.340Z,30.64
2018-05-25T16:41:08.327Z,30.00
2018-05-25T16:43:35.392Z,29.58
2018-05-25T16:46:02.437Z,30.45
2018-05-25T16:48:29.384Z,31.57
2018-05-25T16:50:56.336Z,32.23
2018-05-25T16:53:23.288Z,32.52
2018-05-25T16:55:50.225Z,32.66
2018-05-25T16:58:17.215Z,31.93
2018-05-25T17:00:44.154Z,30.97
2018-05-25T17:03:11.125Z,30.13
2018-05-25T17:05:38.065Z,29.51
2018-05-25T17:08:05.045Z,29.04
2018-05-25T17:10:31.992Z,28.90
2018-05-25T17:12:58.960Z,28.85
2018-05-25T17:15:25.894Z,28.64
2018-05-25T17:17:52.870Z,28.31
2018-05-25T17:20:19.841Z,28.01
2018-05-25T17:22:46.784Z,27.79
2018-05-25T17:25:13.747Z,27.60
2018-05-25T17:27:40.694Z,27.63
2018-05-25T17:30:07.657Z,27.74
2018-05-25T17:32:34.612Z,27.69
2018-05-25T17:35:01.572Z,27.54
2018-05-25T17:37:28.496Z,27.40
2018-05-25T17:39:55.441Z,27.28
2018-05-25T17:42:22.441Z,27.15
2018-05-25T17:44:49.397Z,27.02
2018-05-25T17:47:16.328Z,26.90
2018-05-25T17:49:43.613Z,26.80
2018-05-25T17:52:10.576Z,26.70
2018-05-25T17:54:37.504Z,26.62
2018-05-25T17:57:04.460Z,26.54
2018-05-25T17:59:31.452Z,26.47
2018-05-25T18:01:58.389Z,26.39
2018-05-25T18:04:25.320Z,26.32
2018-05-25T18:06:52.397Z,26.28
2018-05-25T18:09:19.192Z,26.22
2018-05-25T18:11:46.237Z,26.19
2018-05-25T18:14:13.172Z,26.15
2018-05-25T18:16:40.117Z,26.11
2018-05-25T18:19:07.116Z,26.06
2018-05-25T18:21:34.069Z,26.00
2018-05-25T18:24:01.004Z,25.94
2018-05-25T18:26:27.936Z,25.90
2018-05-25T18:28:54.867Z,25.86
2018-05-25T18:31:21.797Z,25.80
2018-05-25T18:33:48.744Z,25.74
2018-05-25T18:36:15.705Z,25.69
2018-05-25T18:38:42.649Z,25.64
2018-05-25T18:41:09.576Z,25.57
2018-05-25T18:43:36.584Z,25.53
2018-05-25T18:46:03.520Z,25.49
2018-05-25T18:48:30.484Z,25.45
2018-05-25T18:50:57.447Z,25.43
2018-05-25T18:53:24.401Z,25.39
2018-05-25T18:55:51.365Z,25.36
2018-05-25T18:58:18.336Z,25.32
2018-05-25T19:00:45.376Z,25.29
2018-05-25T19:03:12.309Z,25.27
2018-05-25T19:05:39.300Z,25.24
2018-05-25T19:08:06.252Z,25.21
2018-05-25T19:10:33.196Z,25.18
2018-05-25T19:13:00.124Z,25.15
2018-05-25T19:15:27.062Z,25.11
2018-05-25T19:17:53.992Z,25.07
2018-05-25T19:20:20.920Z,25.02
2018-05-25T19:22:47.859Z,24.98
2018-05-25T19:25:14.848Z,24.92
2018-05-25T19:27:41.812Z,24.86
2018-05-25T19:30:08.769Z,24.81
2018-05-25T19:32:35.705Z,24.76
2018-05-25T19:35:02.698Z,24.71
2018-05-25T19:37:29.640Z,24.67
2018-05-25T19:39:56.592Z,24.63
2018-05-25T19:42:23.548Z,24.59
2018-05-25T19:44:50.498Z,24.54
2018-05-25T19:47:17.777Z,24.49
2018-05-25T19:49:44.714Z,24.43
2018-05-25T19:52:11.696Z,24.39
2018-05-25T19:54:38.651Z,24.36
2018-05-25T19:57:05.591Z,24.31
2018-05-25T19:59:32.560Z,24.28
2018-05-25T20:01:59.500Z,24.24
2018-05-25T20:04:26.445Z,24.18
2018-05-25T20:06:53.385Z,24.14
2018-05-25T20:09:20.324Z,24.10
2018-05-25T20:11:47.265Z,24.06
2018-05-25T20:14:14.206Z,24.01
2018-05-25T20:16:41.163Z,23.97
2018-05-25T20:19:08.384Z,23.94
2018-05-25T20:21:35.413Z,23.91
2018-05-25T20:24:02.360Z,23.88
2018-05-25T20:26:29.300Z,23.85
2018-05-25T20:28:56.245Z,23.83
2018-05-25T20:31:23.184Z,23.81
2018-05-25T20:33:50.172Z,23.79
2018-05-25T20:36:17.112Z,23.77
2018-05-25T20:38:44.084Z,23.76
2018-05-25T20:43:55.564Z,23.70
2018-05-25T20:46:22.524Z,23.67
2018-05-25T20:48:49.452Z,23.63
2018-05-25T20:51:16.384Z,23.61
2018-05-25T20:53:43.344Z,23.59
2018-05-25T20:56:10.289Z,23.58
2018-05-25T20:58:37.264Z,23.55
2018-05-25T21:01:04.196Z,23.52
2018-05-25T21:03:31.132Z,23.51
2018-05-25T21:05:58.128Z,23.48
2018-05-25T21:08:25.085Z,23.46
2018-05-25T21:10:52.000Z,23.42
2018-05-25T21:13:18.940Z,23.40
2018-05-25T21:15:45.960Z,23.33
2018-05-25T21:18:12.920Z,23.29
2018-05-25T21:20:39.876Z,23.25
2018-05-25T21:23:06.797Z,23.22
2018-05-25T21:25:33.732Z,23.22
2018-05-25T21:28:00.740Z,23.20
2018-05-25T21:30:27.700Z,23.19
2018-05-25T21:32:54.640Z,23.17
2018-05-25T21:35:21.612Z,23.15
2018-05-25T21:37:48.546Z,23.10
2018-05-25T21:40:15.532Z,23.06
2018-05-25T21:42:42.564Z,23.02
2018-05-25T21:45:09.466Z,22.97
2018-05-25T21:47:36.400Z,22.93
2018-05-25T21:50:03.332Z,22.88
2018-05-25T21:52:30.280Z,22.83
2018-05-25T21:54:57.279Z,22.80
2018-05-25T21:57:24.243Z,22.77
2018-05-25T21:59:51.172Z,22.70
2018-05-25T22:02:18.133Z,22.65
2018-05-25T22:04:45.220Z,22.62
2018-05-25T22:07:12.169Z,22.60
2018-05-25T22:09:39.128Z,22.59
2018-05-25T22:12:06.061Z,22.59
2018-05-25T22:14:33.036Z,22.56
2018-05-25T22:16:59.989Z,22.49
2018-05-25T22:19:26.933Z,22.41
2018-05-25T22:21:53.909Z,22.34
2018-05-25T22:24:20.848Z,22.33
2018-05-25T22:26:47.824Z,22.36
2018-05-25T22:29:14.764Z,22.36
2018-05-25T22:31:41.700Z,22.37
2018-05-25T22:34:08.692Z,22.33
2018-05-25T22:36:35.620Z,22.27
2018-05-25T22:39:02.548Z,22.19
2018-05-25T22:41:29.516Z,22.15
2018-05-25T22:44:02.328Z,22.10
2018-05-25T22:46:35.057Z,22.03
2018-05-25T22:49:07.964Z,22.01
2018-05-25T22:51:40.748Z,22.00
2018-05-25T22:54:13.340Z,21.97
2018-05-25T22:56:40.316Z,21.94
2018-05-25T22:59:07.249Z,21.90
2018-05-25T23:01:34.204Z,21.87
2018-05-25T23:04:01.192Z,21.84
2018-05-25T23:06:28.140Z,21.80
2018-05-25T23:08:55.084Z,21.77
2018-05-25T23:11:22.016Z,21.76
2018-05-25T23:13:48.956Z,21.76
2018-05-25T23:16:15.896Z,21.75
2018-05-25T23:18:42.834Z,21.71
2018-05-25T23:21:09.765Z,21.69
2018-05-25T23:23:36.720Z,21.68
2018-05-25T23:26:03.680Z,21.64
2018-05-25T23:28:30.629Z,21.59
2018-05-25T23:30:57.596Z,21.53
2018-05-25T23:33:24.537Z,21.49
2018-05-25T23:35:51.505Z,21.47
2018-05-25T23:38:18.440Z,21.48
2018-05-25T23:40:45.400Z,21.50
2018-05-25T23:43:12.392Z,21.50
2018-05-25T23:45:39.456Z,21.47
2018-05-25T23:48:06.399Z,21.45
2018-05-25T23:50:33.456Z,21.45
2018-05-25T23:53:00.528Z,21.44
2018-05-25T23:55:27.573Z,21.38
2018-05-25T23:57:54.508Z,21.37
